Edgard, Louisiana
Current Conditions -  °F | °C
As of 10:15 AM on Wednesday 22 Oct 2014 (Local Time) from K1L0 Reporting Station
Clear Clear  
Wind Chill: 12°   Ceiling: Unl
Heat Index: 22°   Visibility: 10mi
Dew Point:   Wind: 8mph
Humidity: 49%   Direction: 70°ENE
Pressure: 30.1"   Gusts: NA
Location:  30.04°N, 90.56°W
Report Text: K1L0 221515Z AUTO 07007KT 10SM CLR M06/M15 A3010 RMK AO2 T10581151
Loading
Personal Weather Stations






























Interactive Weather Map
Tropical Storm Tracking
New forecast layout! Learn more

10-Day Weather Forecast

Advertisements
Track Severe Weather on mobile